Time;durP1;ratioP1;P1;durP2;ratioP2;P2;SDS_P1;SDS_P2;PMS_P1;PMS_P2;Temp;Humidity;BMP_temperature;BMP_pressure;BME280_temperature;BME280_humidity;BME280_pressure;Samples;Min_cycle;Max_cycle;Signal;HPM_P1;HPM_P2
2021/10/13 00:00:20;;;;;;;17.30;3.43;;;;;;;8.23;100.00;102220.03;5093353;28;20032;-50
2021/10/13 00:02:45;;;;;;;8.63;4.50;;;;;;;8.19;100.00;102226.63;5093191;28;20326;-48
2021/10/13 00:05:11;;;;;;;12.20;3.57;;;;;;;8.16;100.00;102227.75;5092666;28;20071;-50
2021/10/13 00:07:37;;;;;;;10.80;3.80;;;;;;;8.15;100.00;102219.88;5093589;28;20107;-54
2021/10/13 00:10:04;;;;;;;13.20;3.67;;;;;;;8.12;100.00;102226.38;5093611;28;20039;-48
2021/10/13 00:12:32;;;;;;;;;;;;;;;8.10;100.00;102231.00;5093968;28;20473;-51
2021/10/13 00:14:57;;;;;;;16.70;3.58;;;;;;;8.00;100.00;102228.38;5093582;28;20379;-51
2021/10/13 00:17:23;;;;;;;15.23;3.67;;;;;;;8.01;100.00;102238.03;5093584;28;20066;-52
2021/10/13 00:19:48;;;;;;;11.65;3.70;;;;;;;7.99;100.00;102240.00;5093952;28;20073;-55
2021/10/13 00:22:14;;;;;;;9.77;3.57;;;;;;;8.00;100.00;102238.16;5075320;28;20115;-54
2021/10/13 00:24:40;;;;;;;21.10;3.67;;;;;;;7.96;100.00;102247.44;5092384;28;20769;-52
2021/10/13 00:27:05;;;;;;;12.82;3.53;;;;;;;7.81;100.00;102239.88;5093626;28;20432;-51
2021/10/13 00:29:32;;;;;;;11.03;3.67;;;;;;;7.80;100.00;102245.38;5093851;28;20383;-54
2021/10/13 00:31:58;;;;;;;13.23;4.03;;;;;;;7.82;100.00;102252.22;5093561;28;20441;-53
2021/10/13 00:34:23;;;;;;;9.60;4.00;;;;;;;7.82;100.00;102236.22;5075252;28;20134;-52
2021/10/13 00:36:49;;;;;;;14.17;3.70;;;;;;;7.80;100.00;102243.53;5093406;28;20381;-50
2021/10/13 00:39:14;;;;;;;13.38;3.72;;;;;;;7.83;100.00;102240.56;5093065;28;20032;-55
2021/10/13 00:41:40;;;;;;;12.73;3.80;;;;;;;7.72;100.00;102240.75;5092490;28;20035;-51
2021/10/13 00:44:06;;;;;;;9.93;4.43;;;;;;;7.77;100.00;102230.50;5093134;28;20543;-54
2021/10/13 00:46:31;;;;;;;14.60;4.10;;;;;;;7.74;100.00;102220.13;5074734;28;20040;-52
2021/10/13 00:48:59;;;;;;;12.13;4.38;;;;;;;7.75;100.00;102222.66;5093145;28;20038;-54
2021/10/13 00:51:24;;;;;;;8.77;4.00;;;;;;;7.68;100.00;102223.38;5091906;28;20066;-50
2021/10/13 00:53:51;;;;;;;20.53;4.33;;;;;;;7.65;100.00;102229.81;5092812;28;20367;-50
2021/10/13 00:56:16;;;;;;;;;;;;;;;7.62;100.00;102235.41;5093302;28;20111;-50
2021/10/13 00:58:42;;;;;;;10.97;3.73;;;;;;;7.63;100.00;102236.28;5092849;28;19951;-49
2021/10/13 01:01:19;;;;;;;9.13;3.77;;;;;;;7.61;100.00;102244.41;5092859;28;20492;-50
2021/10/13 01:03:55;;;;;;;10.00;4.50;;;;;;;7.57;100.00;102243.00;5093465;28;20036;-53
2021/10/13 01:06:32;;;;;;;17.40;4.65;;;;;;;7.60;100.00;102251.53;5093444;28;20275;-51
2021/10/13 01:09:20;;;;;;;16.85;4.30;;;;;;;7.57;100.00;102246.50;5092643;28;20039;-49
2021/10/13 01:12:12;;;;;;;17.98;5.03;;;;;;;7.60;100.00;102250.69;5091563;28;20059;-49
2021/10/13 01:15:00;;;;;;;13.10;4.75;;;;;;;7.58;100.00;102240.19;5093860;28;20097;-50
2021/10/13 01:17:35;;;;;;;14.27;4.00;;;;;;;7.59;100.00;102247.19;5091467;28;20473;-50
2021/10/13 01:20:11;;;;;;;18.00;4.68;;;;;;;7.58;100.00;102237.50;5091580;28;20131;-50
2021/10/13 01:22:58;;;;;;;15.68;4.80;;;;;;;7.58;100.00;102250.84;5092685;28;20047;-51
2021/10/13 01:25:39;;;;;;;11.38;4.47;;;;;;;7.59;100.00;102247.19;5093169;28;20128;-53
2021/10/13 01:28:09;;;;;;;12.15;4.90;;;;;;;7.59;100.00;102244.53;5091171;28;20032;-54
2021/10/13 01:30:42;;;;;;;17.08;4.70;;;;;;;7.61;100.00;102239.06;5092754;28;20097;-53
2021/10/13 01:33:39;;;;;;;9.07;4.40;;;;;;;7.60;100.00;102251.53;5092808;28;20032;-51
2021/10/13 01:36:08;;;;;;;10.27;4.97;;;;;;;7.60;100.00;102256.03;5080353;28;20055;-51
2021/10/13 01:38:41;;;;;;;15.35;4.53;;;;;;;7.59;100.00;102251.69;5092407;28;20105;-49
2021/10/13 01:41:10;;;;;;;11.00;4.43;;;;;;;7.59;100.00;102257.00;5092697;28;20036;-49
2021/10/13 01:43:40;;;;;;;11.82;4.30;;;;;;;7.52;100.00;102248.75;5092980;28;20085;-54
2021/10/13 01:46:07;;;;;;;11.50;4.82;;;;;;;7.50;100.00;102248.03;5091741;28;20040;-51
2021/10/13 01:48:35;;;;;;;12.52;4.60;;;;;;;7.50;100.00;102260.53;5092611;28;20031;-48
2021/10/13 01:51:02;;;;;;;11.05;4.75;;;;;;;7.42;100.00;102248.72;5092565;28;20036;-50
2021/10/13 01:53:27;;;;;;;;;;;;;;;7.42;100.00;102248.72;5092559;28;20039;-51
2021/10/13 01:55:57;;;;;;;16.47;4.50;;;;;;;7.40;100.00;102255.19;5092255;28;19916;-52
2021/10/13 01:58:24;;;;;;;21.33;5.18;;;;;;;7.41;100.00;102256.88;5092454;28;20073;-50
2021/10/13 02:00:51;;;;;;;15.30;5.05;;;;;;;7.39;100.00;102259.66;5093071;28;20043;-51
2021/10/13 02:03:22;;;;;;;13.25;5.18;;;;;;;7.39;100.00;102251.69;5092491;28;20031;-54
2021/10/13 02:05:50;;;;;;;15.48;5.28;;;;;;;7.42;100.00;102255.91;5074717;28;20036;-53
2021/10/13 02:08:20;;;;;;;14.80;4.63;;;;;;;7.43;100.00;102258.41;5091954;28;20035;-53
2021/10/13 02:10:46;;;;;;;13.00;4.43;;;;;;;7.50;100.00;102264.00;5092438;28;20067;-51
2021/10/13 02:13:12;;;;;;;;;;;;;;;7.62;100.00;102274.53;5092932;28;20035;-53
2021/10/13 02:15:41;;;;;;;11.90;4.13;;;;;;;7.65;100.00;102277.75;5092368;28;19989;-53
2021/10/13 02:18:12;;;;;;;12.75;4.25;;;;;;;7.62;100.00;102275.38;5074234;28;20031;-50
2021/10/13 02:20:38;;;;;;;17.83;4.97;;;;;;;7.63;100.00;102276.22;5092255;28;20035;-54
2021/10/13 02:23:05;;;;;;;14.68;5.05;;;;;;;7.62;100.00;102271.88;5092300;28;20028;-53
2021/10/13 02:25:35;;;;;;;10.88;4.80;;;;;;;7.54;100.00;102276.06;5095071;28;20533;-50
2021/10/13 02:28:09;;;;;;;16.02;4.50;;;;;;;7.62;100.00;102280.69;5095581;28;20028;-53
2021/10/13 02:30:35;;;;;;;11.75;4.90;;;;;;;7.64;100.00;102280.56;5095510;28;20024;-55
2021/10/13 02:33:01;;;;;;;14.27;5.87;;;;;;;7.69;100.00;102272.97;5096554;28;20429;-54
2021/10/13 02:35:26;;;;;;;12.60;4.07;;;;;;;7.64;100.00;102277.91;5095191;28;20277;-53
2021/10/13 02:37:52;;;;;;;14.80;4.78;;;;;;;7.64;100.00;102280.56;5095943;28;20036;-55
2021/10/13 02:40:18;;;;;;;15.25;4.35;;;;;;;7.58;100.00;102282.78;5094378;28;20040;-54
2021/10/13 02:42:43;;;;;;;8.68;4.25;;;;;;;7.56;100.00;102283.91;5094133;28;20088;-55
2021/10/13 02:45:10;;;;;;;16.60;4.83;;;;;;;7.50;100.00;102280.00;5094463;28;20042;-53
2021/10/13 02:47:38;;;;;;;14.30;4.38;;;;;;;7.51;100.00;102275.50;5094688;28;20711;-51
2021/10/13 02:50:41;;;;;;;11.38;4.22;;;;;;;7.50;100.00;102280.00;5095424;28;20071;-52
2021/10/13 02:53:31;;;;;;;13.48;3.72;;;;;;;7.50;100.00;102277.31;5095426;28;20071;-50
2021/10/13 02:56:30;;;;;;;9.70;4.32;;;;;;;7.49;100.00;102280.97;5095526;28;20028;-49
2021/10/13 02:59:17;;;;;;;14.73;5.50;;;;;;;7.45;100.00;102284.91;5078806;28;20441;-49
2021/10/13 03:01:45;;;;;;;10.13;4.05;;;;;;;7.40;100.00;102279.97;5094776;28;20039;-48
2021/10/13 03:04:20;;;;;;;14.63;4.22;;;;;;;7.44;100.00;102281.38;5095583;28;20024;-52
2021/10/13 03:07:04;;;;;;;9.95;4.40;;;;;;;7.41;100.00;102286.16;5095643;28;20074;-56
2021/10/13 03:09:34;;;;;;;8.88;4.10;;;;;;;7.40;100.00;102285.31;5095044;28;20047;-54
2021/10/13 03:12:03;;;;;;;13.98;4.55;;;;;;;7.30;100.00;102285.28;5095319;28;20040;-51
2021/10/13 03:14:31;;;;;;;14.10;4.15;;;;;;;7.34;100.00;102290.31;5094797;28;20062;-55
2021/10/13 03:16:57;;;;;;;11.10;4.35;;;;;;;8.06;100.00;102288.22;5094746;28;20031;-53
2021/10/13 03:19:25;;;;;;;14.80;4.53;;;;;;;8.40;100.00;102289.53;5095230;28;20085;-51
2021/10/13 03:21:52;;;;;;;14.13;4.50;;;;;;;8.41;100.00;102286.72;5094421;28;20484;-50
2021/10/13 03:24:18;;;;;;;13.35;4.28;;;;;;;7.63;100.00;102289.53;5094897;28;20034;-51
2021/10/13 03:26:48;;;;;;;10.75;4.13;;;;;;;7.50;100.00;102300.47;5094525;28;20410;-53
2021/10/13 03:29:14;;;;;;;12.05;4.63;;;;;;;7.48;100.00;102305.91;5094524;28;20036;-50
2021/10/13 03:31:40;;;;;;;10.35;4.35;;;;;;;7.39;100.00;102298.75;5094844;28;20047;-53
2021/10/13 03:34:06;;;;;;;13.57;4.10;;;;;;;7.30;100.00;102295.94;5094727;28;20221;-52
2021/10/13 03:36:44;;;;;;;7.95;4.20;;;;;;;7.30;100.00;102290.59;5094040;28;20156;-51
2021/10/13 03:39:10;;;;;;;10.90;3.70;;;;;;;7.27;100.00;102306.84;5094441;28;20088;-49
2021/10/13 03:41:36;;;;;;;15.38;4.43;;;;;;;7.23;100.00;102310.78;5094604;28;20462;-51
2021/10/13 03:44:03;;;;;;;15.90;4.88;;;;;;;7.19;100.00;102306.72;5094478;28;20028;-50
2021/10/13 03:46:29;;;;;;;12.13;4.88;;;;;;;7.20;100.00;102313.72;5094354;28;20035;-49
2021/10/13 03:48:55;;;;;;;11.60;4.70;;;;;;;7.24;100.00;102324.91;5093068;28;20040;-51
2021/10/13 03:51:21;;;;;;;14.98;4.78;;;;;;;7.23;100.00;102325.88;5093154;28;20028;-49
2021/10/13 03:53:46;;;;;;;13.05;5.30;;;;;;;7.27;100.00;102322.00;5093904;28;20103;-48
2021/10/13 03:56:13;;;;;;;14.75;5.03;;;;;;;7.26;100.00;102325.59;5094168;28;20468;-49
2021/10/13 03:58:38;;;;;;;8.13;4.63;;;;;;;7.29;100.00;102328.84;5094295;28;20032;-49
2021/10/13 04:01:04;;;;;;;17.65;5.13;;;;;;;7.28;100.00;102326.34;5093893;28;20085;-52
2021/10/13 04:03:29;;;;;;;16.88;5.38;;;;;;;7.22;100.00;102319.75;5094093;28;20474;-49
2021/10/13 04:05:55;;;;;;;19.20;5.97;;;;;;;7.26;100.00;102326.47;5093730;28;20043;-50
2021/10/13 04:08:21;;;;;;;17.70;6.32;;;;;;;7.28;100.00;102335.16;5093795;28;20044;-53
2021/10/13 04:10:46;;;;;;;13.20;5.97;;;;;;;7.29;100.00;102323.53;5075375;28;20224;-52
2021/10/13 04:13:12;;;;;;;24.10;6.70;;;;;;;7.52;100.00;102325.94;5076369;28;20044;-53
2021/10/13 04:15:37;;;;;;;14.33;5.03;;;;;;;7.42;100.00;102327.75;5092492;28;20052;-55
2021/10/13 04:18:04;;;;;;;13.63;7.03;;;;;;;7.46;100.00;102332.66;5092232;28;20127;-52
2021/10/13 04:20:29;;;;;;;;;;;;;;;7.49;100.00;102338.69;5094713;28;20031;-53
2021/10/13 04:22:55;;;;;;;9.93;3.97;;;;;;;7.43;100.00;102338.25;5093413;28;19915;-55
2021/10/13 04:25:20;;;;;;;14.53;5.03;;;;;;;7.50;100.00;102333.22;5093789;28;20115;-52
2021/10/13 04:27:46;;;;;;;12.63;5.17;;;;;;;7.52;100.00;102331.28;5093649;28;20024;-50
2021/10/13 04:30:11;;;;;;;16.55;5.10;;;;;;;7.54;100.00;102328.47;5093560;28;20120;-51
2021/10/13 04:32:37;;;;;;;8.67;4.87;;;;;;;7.51;100.00;102328.75;5092172;28;20349;-56
2021/10/13 04:35:03;;;;;;;16.27;4.80;;;;;;;7.51;100.00;102326.09;5075501;28;20039;-55
2021/10/13 04:37:29;;;;;;;18.55;4.85;;;;;;;7.52;100.00;102327.78;5075152;28;20364;-51
2021/10/13 04:39:54;;;;;;;18.35;4.90;;;;;;;7.50;100.00;102327.91;5092110;28;20071;-54
2021/10/13 04:42:20;;;;;;;18.10;6.33;;;;;;;7.51;100.00;102328.75;5093221;28;20032;-54
2021/10/13 04:44:45;;;;;;;11.27;5.20;;;;;;;7.49;100.00;102322.69;5093382;28;20354;-54
2021/10/13 04:47:11;;;;;;;22.43;7.10;;;;;;;7.57;100.00;102331.69;5092182;28;20130;-52
2021/10/13 04:49:36;;;;;;;14.47;5.13;;;;;;;7.62;100.00;102325.13;5091988;28;20494;-53
2021/10/13 04:52:02;;;;;;;19.57;6.47;;;;;;;7.65;100.00;102333.66;5092993;28;20373;-55
2021/10/13 04:54:27;;;;;;;17.55;5.38;;;;;;;7.73;100.00;102333.81;5093287;28;20040;-52
2021/10/13 04:56:53;;;;;;;8.53;4.43;;;;;;;7.82;100.00;102342.78;5093237;28;20046;-55
2021/10/13 04:59:18;;;;;;;15.23;5.13;;;;;;;7.79;100.00;102339.56;5092023;28;20495;-55
2021/10/13 05:01:44;;;;;;;9.80;5.00;;;;;;;7.91;100.00;102334.94;5093198;28;20354;-53
2021/10/13 05:04:09;;;;;;;12.90;4.57;;;;;;;7.96;100.00;102349.53;5092814;28;20452;-53
2021/10/13 05:06:35;;;;;;;13.90;4.60;;;;;;;8.01;100.00;102341.09;5093520;28;20099;-55
2021/10/13 05:09:00;;;;;;;13.00;4.27;;;;;;;8.07;100.00;102353.84;5092977;28;20054;-53
2021/10/13 05:11:26;;;;;;;15.43;4.00;;;;;;;8.04;100.00;102348.78;5092804;28;20107;-49
2021/10/13 05:13:52;;;;;;;12.77;4.18;;;;;;;8.09;100.00;102348.38;5092944;28;20401;-50
2021/10/13 05:16:17;;;;;;;6.90;3.50;;;;;;;8.13;100.00;102352.44;5091709;28;20131;-50
2021/10/13 05:18:42;;;;;;;6.97;3.70;;;;;;;8.11;100.00;102351.75;5092708;28;20032;-51
2021/10/13 05:21:08;;;;;;;12.43;3.43;;;;;;;8.16;100.00;102355.66;5091584;28;20418;-50
2021/10/13 05:23:33;;;;;;;14.10;4.40;;;;;;;8.16;100.00;102350.34;5092518;28;20122;-53
2021/10/13 05:25:59;;;;;;;12.77;4.80;;;;;;;8.21;100.00;102349.06;5092838;28;20035;-52
2021/10/13 05:28:24;;;;;;;12.13;4.17;;;;;;;8.22;100.00;102350.75;5091589;28;20043;-52
2021/10/13 05:30:50;;;;;;;10.50;3.70;;;;;;;8.24;100.00;102346.13;5092900;28;20248;-52
2021/10/13 05:33:15;;;;;;;11.93;4.07;;;;;;;8.26;100.00;102350.31;5092748;28;20043;-51
2021/10/13 05:35:41;;;;;;;9.07;3.90;;;;;;;8.25;100.00;102353.97;5092435;28;20055;-49
2021/10/13 05:38:06;;;;;;;9.33;3.57;;;;;;;8.23;100.00;102361.28;5092723;28;20039;-49
2021/10/13 05:40:32;;;;;;;11.67;3.43;;;;;;;8.21;100.00;102362.38;5092744;28;20113;-49
2021/10/13 05:42:58;;;;;;;16.13;4.25;;;;;;;8.19;100.00;102365.22;5093009;28;20054;-50
2021/10/13 05:45:23;;;;;;;7.30;3.70;;;;;;;8.18;100.00;102368.84;5091265;28;20043;-52
2021/10/13 05:47:49;;;;;;;15.65;4.05;;;;;;;8.12;100.00;102370.25;5092230;28;20054;-55
2021/10/13 05:50:14;;;;;;;12.07;3.97;;;;;;;8.04;100.00;102372.78;5075564;28;20323;-55
2021/10/13 05:52:40;;;;;;;22.77;3.90;;;;;;;7.94;100.00;102363.97;5091701;28;20248;-54
2021/10/13 05:55:06;;;;;;;7.33;3.50;;;;;;;7.93;100.00;102372.94;5091116;28;20044;-55
2021/10/13 05:57:32;;;;;;;20.10;4.32;;;;;;;7.89;100.00;102375.88;5074946;28;20410;-52
2021/10/13 06:00:00;;;;;;;15.83;4.87;;;;;;;7.84;100.00;102379.94;5093691;28;20059;-54
2021/10/13 06:02:26;;;;;;;11.18;3.88;;;;;;;7.80;100.00;102379.34;5096307;28;20285;-53
2021/10/13 06:04:52;;;;;;;9.02;4.03;;;;;;;7.76;100.00;102380.63;5095329;28;20435;-52
2021/10/13 06:07:17;;;;;;;13.75;4.32;;;;;;;7.77;100.00;102382.31;5096015;28;20028;-52
2021/10/13 06:09:43;;;;;;;19.33;5.33;;;;;;;7.76;100.00;102385.94;5096376;28;20092;-55
2021/10/13 06:12:08;;;;;;;12.57;4.33;;;;;;;7.77;100.00;102374.31;5094927;28;20085;-53
2021/10/13 06:14:34;;;;;;;18.03;5.10;;;;;;;7.79;100.00;102383.00;5095866;28;20035;-55
2021/10/13 06:17:00;;;;;;;12.27;4.90;;;;;;;7.81;100.00;102378.38;5095352;28;20425;-52
2021/10/13 06:19:25;;;;;;;23.92;5.53;;;;;;;7.79;100.00;102375.00;5096236;28;20428;-53
2021/10/13 06:21:51;;;;;;;16.48;5.03;;;;;;;7.84;100.00;102386.13;5095670;28;20028;-54
2021/10/13 06:24:16;;;;;;;10.63;4.00;;;;;;;7.87;100.00;102384.97;5095467;28;20039;-58
2021/10/13 06:26:42;;;;;;;17.13;6.30;;;;;;;7.88;100.00;102384.00;5094682;28;20062;-54
2021/10/13 06:29:09;;;;;;;25.07;7.10;;;;;;;7.98;100.00;102389.31;5095098;28;20042;-53
2021/10/13 06:31:35;;;;;;;15.48;7.70;;;;;;;8.09;100.00;102385.69;5096012;28;20123;-54
2021/10/13 06:34:01;;;;;;;24.55;8.32;;;;;;;8.17;100.00;102383.16;5096148;28;20042;-54
2021/10/13 06:36:26;;;;;;;18.30;7.13;;;;;;;8.27;100.00;102393.81;5095206;28;20048;-55
2021/10/13 06:38:52;;;;;;;23.17;7.05;;;;;;;8.31;100.00;102384.56;5096173;28;20043;-52
2021/10/13 06:41:17;;;;;;;23.23;6.80;;;;;;;8.43;100.00;102390.56;5095526;28;20031;-52
2021/10/13 06:43:43;;;;;;;19.03;7.03;;;;;;;8.57;100.00;102399.97;5095798;28;20336;-54
2021/10/13 06:46:09;;;;;;;20.33;6.30;;;;;;;8.66;100.00;102400.94;5095572;28;20480;-54
2021/10/13 06:48:34;;;;;;;24.77;7.03;;;;;;;8.71;100.00;102409.34;5095861;28;20123;-54
2021/10/13 06:51:00;;;;;;;22.75;6.93;;;;;;;8.75;100.00;102414.22;5095113;28;20087;-54
2021/10/13 06:53:27;;;;;;;15.90;6.53;;;;;;;8.83;100.00;102424.19;5094255;28;20044;-54
2021/10/13 06:55:53;;;;;;;24.35;6.00;;;;;;;8.86;100.00;102423.06;5095374;28;20032;-54
2021/10/13 06:58:18;;;;;;;15.07;5.78;;;;;;;8.84;100.00;102425.03;5096242;28;20189;-53
2021/10/13 07:00:44;;;;;;;16.47;4.77;;;;;;;8.90;100.00;102429.78;5096184;28;20522;-51
2021/10/13 07:03:09;;;;;;;14.43;4.47;;;;;;;8.95;100.00;102424.03;5095693;28;20033;-48
2021/10/13 07:05:36;;;;;;;16.80;4.53;;;;;;;9.08;100.00;102434.38;5093880;28;20473;-50
2021/10/13 07:08:01;;;;;;;;;;;;;;;9.16;100.00;102432.66;5094314;28;20158;-50
2021/10/13 07:10:27;;;;;;;12.67;5.27;;;;;;;9.19;100.00;102439.50;5094841;28;19962;-54
2021/10/13 07:12:52;;;;;;;20.25;5.75;;;;;;;10.15;100.00;102427.56;5095600;28;20037;-55
2021/10/13 07:15:18;;;;;;;20.77;5.07;;;;;;;10.51;100.00;102431.22;5093830;28;20039;-50
2021/10/13 07:17:44;;;;;;;15.75;5.03;;;;;;;10.58;100.00;102435.78;5094112;28;20035;-55
2021/10/13 07:20:11;;;;;;;19.52;6.53;;;;;;;10.75;100.00;102438.59;5093394;28;20445;-54
2021/10/13 07:22:38;;;;;;;23.40;5.80;;;;;;;10.91;100.00;102435.16;5095103;28;20038;-56
2021/10/13 07:25:05;;;;;;;18.83;7.10;;;;;;;10.17;100.00;102446.97;5093839;28;20264;-53
2021/10/13 07:27:30;;;;;;;18.07;5.17;;;;;;;9.68;100.00;102433.06;5093231;28;20039;-54
2021/10/13 07:30:00;;;;;;;13.23;3.72;;;;;;;9.68;100.00;102438.41;5076807;28;20272;-52
2021/10/13 07:32:30;;;;;;;8.90;3.75;;;;;;;9.67;100.00;102444.75;5094901;28;20032;-54
2021/10/13 07:34:57;;;;;;;12.83;3.27;;;;;;;9.62;100.00;102439.88;5094469;28;20036;-52
2021/10/13 07:37:23;;;;;;;10.15;3.50;;;;;;;9.59;100.00;102440.19;5094543;28;20272;-55
2021/10/13 07:39:49;;;;;;;12.20;3.50;;;;;;;9.65;100.00;102449.41;5093097;28;20032;-54
2021/10/13 07:42:17;;;;;;;10.13;3.45;;;;;;;9.65;100.00;102441.41;5094225;28;20026;-53
2021/10/13 07:44:44;;;;;;;15.57;3.30;;;;;;;9.83;100.00;102450.28;5094683;28;20093;-51
2021/10/13 07:47:09;;;;;;;14.97;4.13;;;;;;;10.00;100.00;102453.97;5094191;28;20382;-53
2021/10/13 07:49:39;;;;;;;10.52;3.72;;;;;;;10.14;100.00;102447.25;5094608;28;20469;-53
2021/10/13 07:52:05;;;;;;;11.17;3.80;;;;;;;10.22;100.00;102459.03;5092547;28;20035;-50
2021/10/13 07:54:31;;;;;;;10.40;3.38;;;;;;;10.44;100.00;102458.59;5092980;28;20301;-54
2021/10/13 07:56:56;;;;;;;13.43;3.88;;;;;;;10.61;100.00;102454.19;5092935;28;20036;-49
2021/10/13 07:59:22;;;;;;;12.90;3.07;;;;;;;10.80;100.00;102449.66;5094230;28;20118;-53
2021/10/13 08:01:47;;;;;;;18.80;4.15;;;;;;;10.82;100.00;102454.81;5092864;28;20070;-52
2021/10/13 08:04:13;;;;;;;10.55;3.83;;;;;;;10.89;100.00;102461.25;5093748;28;20040;-50
2021/10/13 08:06:38;;;;;;;6.10;2.90;;;;;;;10.94;100.00;102464.28;5094714;28;20048;-53
2021/10/13 08:09:04;;;;;;;7.17;3.30;;;;;;;11.16;100.00;102467.41;5092752;28;20295;-55
2021/10/13 08:11:29;;;;;;;7.97;3.40;;;;;;;11.19;100.00;102461.75;5094102;28;20249;-53
2021/10/13 08:13:55;;;;;;;12.45;2.90;;;;;;;11.27;100.00;102469.81;5092272;28;20036;-49
2021/10/13 08:16:21;;;;;;;5.25;3.15;;;;;;;11.60;100.00;102474.47;5091888;28;20024;-51
2021/10/13 08:18:46;;;;;;;10.70;3.00;;;;;;;11.92;100.00;102464.84;5094221;28;20027;-54
2021/10/13 08:21:12;;;;;;;8.17;2.60;;;;;;;11.86;100.00;102454.78;5093299;28;20111;-53
2021/10/13 08:23:37;;;;;;;6.78;2.70;;;;;;;12.52;100.00;102457.53;5092995;28;20024;-54
2021/10/13 08:26:03;;;;;;;9.90;3.05;;;;;;;12.51;100.00;102457.72;5093150;28;20042;-50
2021/10/13 08:28:29;;;;;;;6.78;2.35;;;;;;;12.27;100.00;102462.91;5093106;28;20047;-53
2021/10/13 08:30:56;;;;;;;8.77;2.58;;;;;;;12.52;100.00;102464.78;5074123;28;20036;-52
2021/10/13 08:33:22;;;;;;;9.23;2.70;;;;;;;12.60;100.00;102462.91;5092322;28;20024;-52
2021/10/13 08:35:48;;;;;;;7.65;2.53;;;;;;;12.60;100.00;102464.75;5093573;28;20610;-53
2021/10/13 08:38:14;;;;;;;10.25;2.75;;;;;;;12.63;100.00;102469.78;5093541;28;20077;-51
2021/10/13 08:40:41;;;;;;;9.38;2.20;;;;;;;12.88;100.00;102469.75;5093606;28;20464;-53
2021/10/13 08:43:09;;;;;;;9.73;2.37;;;;;;;13.02;100.00;102469.06;5059159;28;20194;-52
2021/10/13 08:45:37;;;;;;;11.67;3.17;;;;;;;13.16;100.00;102474.72;5093494;28;20276;-51
2021/10/13 08:48:04;;;;;;;7.57;1.90;;;;;;;13.23;100.00;102475.72;5093255;28;20268;-54
2021/10/13 08:50:31;;;;;;;7.00;1.90;;;;;;;13.45;100.00;102465.25;5075088;28;20279;-54
2021/10/13 08:53:08;;;;;;;9.53;2.50;;;;;;;13.50;100.00;102480.84;5092968;28;20720;-54
2021/10/13 08:55:35;;;;;;;6.57;2.50;;;;;;;13.33;100.00;102479.00;5093742;28;20701;-49
2021/10/13 08:58:14;;;;;;;10.33;2.50;;;;;;;13.39;100.00;102479.34;5092946;28;20312;-50
2021/10/13 09:00:43;;;;;;;10.03;2.00;;;;;;;13.53;100.00;102480.50;5092866;28;20333;-54
2021/10/13 09:03:28;;;;;;;9.13;2.87;;;;;;;13.45;100.00;102478.69;5092801;28;20718;-54
2021/10/13 09:05:55;;;;;;;9.20;2.47;;;;;;;13.66;100.00;102482.63;5091466;28;20295;-54
2021/10/13 09:08:21;;;;;;;9.60;2.57;;;;;;;13.75;100.00;102484.25;5092598;28;20276;-54
2021/10/13 09:10:46;;;;;;;11.95;2.65;;;;;;;13.81;100.00;102494.28;5092628;28;20591;-52
2021/10/13 09:13:18;;;;;;;5.25;2.70;;;;;;;13.94;100.00;102493.72;5093279;28;20369;-51
2021/10/13 09:15:52;;;;;;;6.53;2.73;;;;;;;14.11;100.00;102491.78;5092930;28;20393;-51
2021/10/13 09:18:23;;;;;;;13.83;3.43;;;;;;;14.01;100.00;102491.16;5076422;28;20257;-51
2021/10/13 09:20:50;;;;;;;11.17;3.37;;;;;;;14.61;100.00;102486.81;5091782;28;20736;-54
2021/10/13 09:23:20;;;;;;;10.60;2.87;;;;;;;15.46;100.00;102491.22;5092726;28;20256;-53
2021/10/13 09:26:08;;;;;;;8.50;2.40;;;;;;;16.11;100.00;102487.81;5092960;28;20252;-52
2021/10/13 09:28:34;;;;;;;6.53;2.07;;;;;;;16.31;100.00;102486.16;5092754;28;20521;-56
2021/10/13 09:31:11;;;;;;;4.95;2.00;;;;;;;16.53;100.00;102485.28;5091300;28;20030;-55
2021/10/13 09:33:37;;;;;;;6.83;2.07;;;;;;;17.67;100.00;102477.03;5092758;28;20032;-53
2021/10/13 09:36:12;;;;;;;6.13;1.70;;;;;;;17.82;100.00;102493.94;5095509;28;20048;-50
2021/10/13 09:38:43;;;;;;;7.63;1.57;;;;;;;17.49;100.00;102492.78;5097084;28;20032;-53
2021/10/13 09:41:09;;;;;;;9.27;1.60;;;;;;;17.38;100.00;102492.50;5096424;28;20039;-54
2021/10/13 09:43:37;;;;;;;9.27;1.33;;;;;;;16.76;100.00;102493.16;5096695;28;20028;-53
2021/10/13 09:46:05;;;;;;;8.10;1.43;;;;;;;16.13;100.00;102491.97;5096772;28;20048;-54
2021/10/13 09:48:32;;;;;;;6.27;2.00;;;;;;;16.12;100.00;102489.47;5096675;28;20066;-50
2021/10/13 09:50:57;;;;;;;;;;;;;;;15.87;100.00;102493.34;5096639;28;20090;-53
2021/10/13 09:53:27;;;;;;;7.87;1.40;;;;;;;15.53;100.00;102494.81;5095397;28;19912;-53
2021/10/13 09:55:53;;;;;;;3.50;1.03;;;;;;;15.66;100.00;102498.69;5096552;28;20043;-51
2021/10/13 09:58:27;;;;;;;8.25;1.48;;;;;;;15.48;100.00;102506.16;5077979;28;20047;-55
2021/10/13 10:01:10;;;;;;;7.90;1.47;;;;;;;15.84;100.00;102498.28;5096412;28;20131;-53
2021/10/13 10:03:39;;;;;;;5.40;1.80;;;;;;;16.70;100.00;102505.56;5096207;28;20108;-53
2021/10/13 10:06:06;;;;;;;8.07;1.50;;;;;;;16.78;100.00;102502.72;5094942;28;20024;-53
2021/10/13 10:08:50;;;;;;;4.47;1.07;;;;;;;17.02;100.00;102499.81;5096097;28;20466;-50
2021/10/13 10:11:30;;;;;;;8.47;2.40;;;;;;;17.68;100.00;102503.03;5095887;28;20169;-54
2021/10/13 10:13:56;;;;;;;9.63;1.67;;;;;;;17.52;100.00;102507.75;5096194;28;20064;-51
2021/10/13 10:16:31;;;;;;;6.68;1.30;;;;;;;18.06;100.00;102513.38;5096396;28;20051;-52
2021/10/13 10:19:22;;;;;;;7.63;1.50;;;;;;;17.86;100.00;102513.28;5096017;28;20212;-54
2021/10/13 10:21:56;;;;;;;8.70;1.60;;;;;;;17.86;100.00;102518.69;5095701;28;20456;-52
2021/10/13 10:24:34;;;;;;;7.27;1.40;;;;;;;18.00;100.00;102519.59;5096309;28;20373;-51
2021/10/13 10:27:18;;;;;;;6.93;1.47;;;;;;;17.31;100.00;102517.66;5096272;28;20036;-53
2021/10/13 10:29:43;;;;;;;9.47;2.17;;;;;;;18.14;100.00;102518.59;5094815;28;20315;-51
2021/10/13 10:32:19;;;;;;;8.00;1.90;;;;;;;18.37;100.00;102520.09;5095523;28;20030;-56
2021/10/13 10:35:03;;;;;;;4.63;1.03;;;;;;;17.63;100.00;102518.00;5094425;28;20381;-53
2021/10/13 10:37:43;;;;;;;3.27;1.10;;;;;;;17.25;100.00;102515.72;5095438;28;20628;-52
2021/10/13 10:40:15;;;;;;;9.70;1.73;;;;;;;17.82;100.00;102518.28;5094029;28;20051;-51
2021/10/13 10:42:52;;;;;;;8.00;1.30;;;;;;;18.53;100.00;102526.16;5095248;28;20108;-53
2021/10/13 10:45:23;;;;;;;8.63;3.07;;;;;;;18.02;100.00;102512.13;5094009;28;20450;-53
2021/10/13 10:48:15;;;;;;;7.00;1.43;;;;;;;18.37;100.00;102513.84;5095509;28;20453;-52
2021/10/13 10:50:40;;;;;;;4.80;1.27;;;;;;;18.45;100.00;102516.34;5093173;28;20044;-55
2021/10/13 10:53:06;;;;;;;3.83;1.25;;;;;;;19.45;100.00;102507.25;5094012;28;20042;-50
2021/10/13 10:55:41;;;;;;;5.53;1.17;;;;;;;21.09;100.00;102517.63;5094000;28;20346;-55
2021/10/13 10:58:22;;;;;;;2.57;1.13;;;;;;;22.37;84.61;102524.13;5095328;28;20041;-54
2021/10/13 11:01:26;;;;;;;4.13;1.03;;;;;;;23.81;69.52;102528.41;5096243;28;20097;-55
2021/10/13 11:03:52;;;;;;;2.57;0.97;;;;;;;25.23;60.90;102528.50;5066793;28;20048;-53
2021/10/13 11:06:22;;;;;;;;;;;;;;;25.67;54.39;102526.84;5094380;28;20024;-54
2021/10/13 11:08:51;;;;;;;5.95;1.15;;;;;;;25.45;49.93;102530.41;5094365;28;19920;-55
2021/10/13 11:11:17;;;;;;;6.25;1.33;;;;;;;24.92;53.57;102528.09;5094826;28;20037;-56
2021/10/13 11:14:01;;;;;;;4.07;1.40;;;;;;;24.82;64.92;102527.94;5095088;28;20386;-53
2021/10/13 11:16:27;;;;;;;5.90;0.80;;;;;;;24.90;55.86;102530.22;5095445;28;20043;-53
2021/10/13 11:18:52;;;;;;;3.13;1.15;;;;;;;23.66;62.39;102519.91;5095463;28;20051;-54
2021/10/13 11:21:18;;;;;;;6.20;1.20;;;;;;;22.33;76.44;102515.59;5094769;28;20425;-54
2021/10/13 11:23:45;;;;;;;8.20;1.20;;;;;;;21.87;75.83;102508.97;5094862;28;20020;-52
2021/10/13 11:26:10;;;;;;;6.30;1.30;;;;;;;21.10;100.00;102510.31;5093388;28;20373;-50